Airfield :
LOGIN :

Register | Disclaimer

   EN    FR    IT 

 










Legend :    VFR   Marginal VFR   IFR   Intensive IFR   Very Intensive IFR
Visi :
Ceiling :
>= 8 km
>= 3000ft
5 to 8 km
1000 to 3000 ft
1500m to 5 km
500 to 1000 ft
800 to 1500m
200 to 500 ft
< 800m
< 200 ft
Symbols :   Thunderstorms  Fog  Heavy snow  Heavy precipitations  Wind > 20 kt
SIGMETs :     Misc.  Thunderstorms  Icing  Turbulence  Mountain Waves  Volcanic Ashes







- Airport Elevation : 290 ft
- IATA code : LAI
- Download approach charts


LFRO - Lannion

CURRENT METAR :
  • 191100Z AUTO 19007KT 150V220 CAVOK 10/06 Q1022 NOSIG

EXPIRED METARs :
  • 191030Z AUTO 17005KT CAVOK 09/06 Q1022 NOSIG
  • 191000Z AUTO 15005KT CAVOK 08/07 Q1022 NOSIG
  • 190930Z AUTO 16004KT CAVOK 06/06 Q1021 NOSIG
  • 190900Z AUTO 15005KT CAVOK 04/04 Q1021 NOSIG
  • 190830Z AUTO 15005KT CAVOK 03/03 Q1021 NOSIG

TAF TAF LFRO
Valid from the 19 at 06:00 until the 20 at 06:00 UTC


190500Z 1906/2006 16005KT CAVOK
BECMG 2000/2003 BKN006
TEMPO 2003/2006 0800 BCFG
No reported NOTAMs for that airfield.
2 SIGMETs reported for the Brest FIR (LFRR) :
 
Severe turbulence
LFRR SIGMET 4 VALID 191200/191600 LFPW
LFRR BREST FIR/UIR SEV TURB FCST SE OF LINE N4545 W00145 - N4400 W00345 FL180/300 STNR NC=
Severe turbulence
LFRR SIGMET 3 VALID 190800/191200 LFPW
LFRR BREST FIR/UIR SEV TURB FCST SE OF LINE N4800 W00015 - N4415 W00430 FL200/300 STNR NC=



MET'MAP, your aeronautical weather chart ! - Copyright ORBIFLY December 2007 - Disclaimer

ORBIFLY MET'MAP TEAM :

Programming & Development : Alexandra Zaïnal
Concept & Development : Baudouin d'Aumeries
Co-Development & Prog : Marc-Olivier Méhu
Technical & hardware support : Manuel Goepfert

Contact : metmap@orbifly.com




SOURCES & CREDITS :

   NOAA